ADDS METAR Data INFO
IDs: Format: Raw Decoded Include TAF

Data at: 0258 UTC 21 Jan 2018

KCBG 210235Z AUTO 00000KT 10SM 00/M03 A2991 RMK AO2
KCBG 210215Z AUTO 00000KT 10SM 01/M04 A2991 RMK AO2
KCBG 210155Z AUTO 00000KT 10SM 01/M04 A2991 RMK AO2
KCBG 210135Z AUTO 00000KT 10SM 02/M03 A2991 RMK AO2
KCBG 210115Z AUTO 29003KT 10SM 02/M03 A2991 RMK AO2
KCBG 210055Z AUTO 00000KT 10SM 02/M03 A2991 RMK AO2
KCBG 210035Z AUTO 00000KT 10SM 01/M03 A2991 RMK AO2
KCBG 210015Z AUTO 00000KT 10SM 02/M03 A2990 RMK AO2
KCBG 202355Z AUTO 00000KT 10SM 02/M03 A2991 RMK AO2
KCBG 202335Z AUTO 00000KT 10SM 02/M03 A2991 RMK AO2
KCBG 202315Z AUTO 00000KT 10SM 04/M02 A2990 RMK AO2
KCBG 202255Z AUTO 23003KT 10SM 04/M02 A2990 RMK AO2
KCBG 202235Z AUTO 00000KT 10SM 04/M02 A2988 RMK AO2
KCBG 202215Z AUTO 18003KT 10SM 05/M02 A2988 RMK AO2
KCBG 202155Z AUTO 00000KT 10SM 05/M01 A2988 RMK AO2
KCBG 202135Z AUTO 24004KT 10SM 06/M01 A2987 RMK AO2
KCBG 202115Z AUTO 24003KT 10SM BKN085 06/M01 A2986 RMK AO2
KCBG 202055Z AUTO 23003KT 10SM OVC085 05/M01 A2987 RMK AO2
KCBG 202035Z AUTO 22005KT 10SM OVC085 04/M01 A2986 RMK AO2
KCBG 202015Z AUTO 21005KT 10SM BKN085 04/M01 A2986 RMK AO2
KCBG 201955Z AUTO 19005KT 10SM OVC085 04/M02 A2985 RMK AO2
KCBG 201935Z AUTO 19007KT 10SM OVC085 04/M02 A2985 RMK AO2
KCBG 201915Z AUTO 18006KT 10SM BKN085 BKN095 04/M02 A2985 RMK AO2
KCBG 201855Z AUTO 17005KT 10SM BKN085 04/M02 A2986 RMK AO2
KCBG 201835Z AUTO 19004KT 10SM SCT085 SCT110 04/M02 A2987 RMK AO2
KCBG 201815Z AUTO 19004KT 10SM 03/M02 A2987 RMK AO2
KCBG 201755Z AUTO 00000KT 03/ A2988 RMK AO2 PM PWINO
KCBG 201735Z AUTO 20004KT 10SM 02/M01 A2988 RMK AO2
KCBG 201715Z AUTO 00000KT 10SM 02/00 A2988 RMK AO2
KCBG 201655Z AUTO 00000KT 10SM 01/00 A2988 RMK AO2
KCBG 201635Z AUTO 00000KT 10SM 01/00 A2988 RMK AO2
KCBG 201615Z AUTO 00000KT 10SM 00/M01 A2986 RMK AO2
KCBG 201555Z AUTO 00000KT 10SM M01/M01 A2985 RMK AO2
KCBG 201535Z AUTO 00000KT 10SM OVC110 M01/M02 A2986 RMK AO2
KCBG 201515Z AUTO 00000KT 10SM M02/M03 A2985 RMK AO2
KCBG 201455Z AUTO 00000KT 7SM M02/M03 A2984 RMK AO2
KCBG 201435Z AUTO 00000KT 7SM M03/M03 A2983 RMK AO2
KCBG 201415Z AUTO 00000KT 10SM M03/M04 A2982 RMK AO2
KCBG 201355Z AUTO 00000KT 10SM M03/M04 A2982 RMK AO2
KCBG 201335Z AUTO 00000KT 10SM CLR M04/M05 A2984 RMK AO2
KCBG 201315Z AUTO 00000KT 10SM M04/M05 A2983 RMK AO2
KCBG 201255Z AUTO 00000KT 7SM M04/M06 A2982 RMK AO2
KCBG 201235Z AUTO 00000KT 10SM M04/M06 A2981 RMK AO2
KCBG 201215Z AUTO 00000KT 7SM CLR M04/M06 A2981 RMK AO2
KCBG 201155Z AUTO 00000KT 10SM CLR M06/M07 A2981 RMK AO2
KCBG 201135Z AUTO 00000KT 7SM CLR M03/M05 A2980 RMK AO2
KCBG 201115Z AUTO 00000KT 3SM BR CLR M04/M06 A2979 RMK AO2
KCBG 201055Z AUTO 00000KT 3/4SM BR VV005 M04/M06 A2978 RMK AO2
KCBG 201035Z AUTO 00000KT 1 1/4SM BR CLR M06/M08 A2978 RMK AO2
KCBG 201015Z AUTO 00000KT 3/4SM BR VV005 M06/M08 A2977 RMK AO2
KCBG 200955Z AUTO 00000KT 4SM BR CLR M06/M07 A2977 RMK AO2
KCBG 200935Z AUTO 00000KT 1/4SM FZFG VV002 M06/M08 A2976 RMK AO2
KCBG 200915Z AUTO 00000KT 1/4SM FZFG VV002 M05/M07 A2976 RMK AO2
KCBG 200855Z AUTO 00000KT 3/4SM BR VV005 M05/M07 A2976 RMK AO2
KCBG 200835Z AUTO 00000KT 4SM BR CLR M05/M07 A2977 RMK AO2
KCBG 200815Z AUTO 00000KT 10SM CLR M05/M07 A2975 RMK AO2
KCBG 200755Z AUTO 00000KT 10SM CLR M05/M07 A2975 RMK AO2
KCBG 200735Z AUTO 00000KT 10SM CLR M03/M04 A2973 RMK AO2
KCBG 200716Z AUTO 00000KT 10SM CLR M02/M04 A2973 RMK AO2
KCBG 200655Z AUTO 00000KT 10SM CLR M03/M06 A2972 RMK AO2
KCBG 200635Z AUTO 00000KT 10SM CLR M01/M04 A2972 RMK AO2
KCBG 200615Z AUTO 00000KT 10SM CLR M01/M04 A2971 RMK AO2
KCBG 200555Z AUTO 00000KT 10SM CLR 01/M04 A2970 RMK AO2
KCBG 200535Z AUTO 00000KT 10SM CLR 02/M03 A2969 RMK AO2
KCBG 200515Z AUTO 00000KT 10SM 03/M03 A2968 RMK AO2
KCBG 200455Z AUTO 27003KT 10SM 03/M02 A2967 RMK AO2
KCBG 200435Z AUTO 26004KT 10SM 03/M02 A2966 RMK AO2
KCBG 200415Z AUTO 00000KT 10SM CLR 03/M02 A2965 RMK AO2
KCBG 200355Z AUTO 26004KT 10SM CLR 03/M03 A2965 RMK AO2
KCBG 200335Z AUTO 00000KT 10SM CLR 03/M03 A2964 RMK AO2
KCBG 200315Z AUTO 25003KT 10SM CLR 03/M02 A2962 RMK AO2
KCBG 200255Z AUTO 24003KT 10SM CLR 04/M02 A2962 RMK AO2
KCBG 200235Z AUTO 24003KT 10SM CLR 03/M02 A2961 RMK AO2
KCBG 200215Z AUTO 24004KT 10SM CLR 03/M02 A2960 RMK AO2
KCBG 200155Z AUTO 23003KT 10SM CLR 02/M03 A2959 RMK AO2
KCBG 200135Z AUTO 22003KT 10SM CLR 01/M04 A2957 RMK AO2
KCBG 200115Z AUTO 00000KT 10SM CLR 01/M03 A2957 RMK AO2
KCBG 200055Z AUTO 00000KT 10SM CLR 02/M03 A2956 RMK AO2
KCBG 200035Z AUTO 18003KT 10SM CLR 03/M03 A2955 RMK AO2
KCBG 200015Z AUTO 00000KT 10SM CLR 02/M03 A2956 RMK AO2
KCBG 192355Z AUTO 18004KT 10SM CLR 03/M03 A2955 RMK AO2
KCBG 192335Z AUTO 00000KT 10SM CLR 02/M03 A2954 RMK AO2
KCBG 192315Z AUTO 20003KT 10SM CLR 04/M02 A2953 RMK AO2
KCBG 192255Z AUTO 00000KT 10SM CLR 05/M02 A2953 RMK AO2
KCBG 192235Z AUTO 21003KT 10SM CLR 06/M01 A2952 RMK AO2
KCBG 192215Z AUTO 20004KT 10SM CLR 06/M01 A2950 RMK AO2
KCBG 192155Z AUTO 20004KT 10SM CLR 06/M01 A2949 RMK AO2
KCBG 192135Z AUTO 20005KT 10SM CLR 06/M01 A2948 RMK AO2
KCBG 192115Z AUTO 21006KT 10SM 06/M01 A2947 RMK AO2
KCBG 192055Z AUTO 20006KT 10SM 06/M02 A2947 RMK AO2
KCBG 192035Z AUTO 20008KT 10SM CLR 06/M02 A2946 RMK AO2
KCBG 192015Z AUTO 21006KT 10SM CLR 06/M02 A2947 RMK AO2
KCBG 191955Z AUTO 21007KT 10SM CLR 06/M02 A2946 RMK AO2
KCBG 191935Z AUTO 22006KT 10SM CLR 06/M02 A2946 RMK AO2
KCBG 191915Z AUTO 21006KT 10SM CLR 05/M02 A2947 RMK AO2
KCBG 191855Z AUTO 21007KT 193V263 10SM CLR 06/M02 A2948 RMK AO2
KCBG 191835Z AUTO 23007KT 10SM CLR 05/M03 A2948 RMK AO2
KCBG 191815Z AUTO 18008KT 10SM CLR 04/M03 A2947 RMK AO2
KCBG 191755Z AUTO 16009KT 10SM CLR 04/M03 A2948 RMK AO2
KCBG 191735Z AUTO 16007KT 10SM CLR 03/M03 A2950 RMK AO2
KCBG 191715Z AUTO 16008KT 10SM CLR 03/M03 A2950 RMK AO2
KCBG 191655Z AUTO 17006KT 10SM CLR 03/M03 A2952 RMK AO2
KCBG 191635Z AUTO 17007KT 10SM CLR 02/M03 A2954 RMK AO2
KCBG 191615Z AUTO 18007KT 10SM 02/M03 A2955 RMK AO2
KCBG 191555Z AUTO 18005KT 10SM 02/M04 A2955 RMK AO2
KCBG 191535Z AUTO 18006KT 10SM CLR 02/M04 A2955 RMK AO2
KCBG 191515Z AUTO 17010KT 10SM CLR 01/M04 A2954 RMK AO2